createdAt,value
2023-01-08T00:01:13.775Z,11.17
2023-01-08T00:03:41.046Z,11.25
2023-01-08T00:06:11.582Z,11.11
2023-01-08T00:08:38.465Z,11.20
2023-01-08T00:11:05.235Z,11.19
2023-01-08T00:13:31.837Z,11.41
2023-01-08T00:16:06.559Z,11.39
2023-01-08T00:18:33.856Z,11.20
2023-01-08T00:21:01.019Z,11.18
2023-01-08T00:23:27.749Z,11.09
2023-01-08T00:25:54.382Z,11.13
2023-01-08T00:28:21.283Z,11.22
2023-01-08T00:30:48.838Z,11.24
2023-01-08T00:33:15.905Z,11.19
2023-01-08T00:35:42.607Z,11.36
2023-01-08T00:38:09.199Z,11.29
2023-01-08T00:40:36.726Z,11.17
2023-01-08T00:43:03.811Z,11.35
2023-01-08T00:45:30.710Z,11.39
2023-01-08T00:47:58.323Z,11.18
2023-01-08T00:50:25.886Z,11.30
2023-01-08T00:52:52.616Z,11.27
2023-01-08T00:55:19.527Z,11.38
2023-01-08T00:57:46.256Z,11.44
2023-01-08T01:00:15.543Z,11.33
2023-01-08T01:02:42.914Z,11.36
2023-01-08T01:05:12.278Z,11.35
2023-01-08T01:07:39.230Z,11.36
2023-01-08T01:10:06.502Z,11.26
2023-01-08T01:12:33.195Z,11.33
2023-01-08T01:14:59.914Z,11.25
2023-01-08T01:17:26.575Z,11.26
2023-01-08T01:19:53.216Z,11.37
2023-01-08T01:22:19.763Z,11.20
2023-01-08T01:24:46.308Z,11.33
2023-01-08T01:27:12.936Z,11.13
2023-01-08T01:29:39.556Z,11.27
2023-01-08T01:32:06.649Z,11.21
2023-01-08T01:34:33.273Z,11.35
2023-01-08T01:36:59.928Z,11.23
2023-01-08T01:39:26.596Z,11.30
2023-01-08T01:41:53.537Z,11.12
2023-01-08T01:44:38.252Z,11.34
2023-01-08T01:47:19.888Z,11.34
2023-01-08T01:49:56.939Z,11.43
2023-01-08T01:52:25.491Z,11.36
2023-01-08T01:54:53.047Z,11.33
2023-01-08T01:57:19.894Z,11.33
2023-01-08T01:59:48.297Z,11.23
2023-01-08T02:02:14.972Z,11.01
2023-01-08T02:04:41.821Z,11.18
2023-01-08T02:07:15.760Z,11.19
2023-01-08T02:09:51.935Z,11.17
2023-01-08T02:12:26.680Z,11.28
2023-01-08T02:15:02.650Z,11.38
2023-01-08T02:17:51.100Z,11.32
2023-01-08T02:20:20.402Z,11.31
2023-01-08T02:22:53.961Z,11.14
2023-01-08T02:25:36.936Z,11.22
2023-01-08T02:28:09.025Z,11.33
2023-01-08T02:30:35.987Z,11.43
2023-01-08T02:33:03.219Z,11.31
2023-01-08T02:35:46.858Z,11.12
2023-01-08T02:38:20.124Z,11.36
2023-01-08T02:41:10.423Z,11.39
2023-01-08T02:43:50.036Z,11.38
2023-01-08T02:46:22.422Z,11.33
2023-01-08T02:48:54.587Z,11.40
2023-01-08T02:51:35.559Z,11.38
2023-01-08T02:54:11.657Z,11.45
2023-01-08T02:56:44.534Z,11.30
2023-01-08T02:59:23.703Z,11.34
2023-01-08T03:01:50.822Z,11.35
2023-01-08T03:04:22.181Z,11.27
2023-01-08T03:06:49.873Z,11.45
2023-01-08T03:09:17.723Z,11.37
2023-01-08T03:11:52.194Z,11.35
2023-01-08T03:14:21.642Z,11.27
2023-01-08T03:16:52.563Z,11.26
2023-01-08T03:19:23.700Z,11.40
2023-01-08T03:21:52.247Z,11.47
2023-01-08T03:24:26.735Z,11.35
2023-01-08T03:26:58.331Z,11.46
2023-01-08T03:29:27.215Z,11.53
2023-01-08T03:31:58.407Z,11.40
2023-01-08T03:34:26.864Z,11.46
2023-01-08T03:36:58.687Z,11.32
2023-01-08T03:39:41.972Z,11.21
2023-01-08T03:42:12.209Z,11.30
2023-01-08T03:44:39.174Z,11.40
2023-01-08T03:47:09.659Z,11.51
2023-01-08T03:49:38.205Z,11.37
2023-01-08T03:52:04.856Z,11.37
2023-01-08T03:54:34.261Z,11.35
2023-01-08T03:57:01.009Z,11.25
2023-01-08T03:59:27.632Z,11.20
2023-01-08T04:01:54.729Z,11.06
2023-01-08T04:04:21.397Z,11.31
2023-01-08T04:06:48.034Z,11.32
2023-01-08T04:09:14.660Z,11.30
2023-01-08T04:11:41.200Z,11.22
2023-01-08T04:14:08.140Z,11.27
2023-01-08T04:16:34.730Z,11.23
2023-01-08T04:19:01.412Z,11.26
2023-01-08T04:21:27.971Z,11.20
2023-01-08T04:23:55.185Z,11.05
2023-01-08T04:26:21.749Z,11.17
2023-01-08T04:28:48.391Z,11.03
2023-01-08T04:31:15.017Z,11.10
2023-01-08T04:33:41.536Z,11.12
2023-01-08T04:36:08.318Z,11.13
2023-01-08T04:38:34.873Z,11.10
2023-01-08T04:41:02.621Z,11.05
2023-01-08T04:43:30.763Z,11.04
2023-01-08T04:46:02.018Z,11.01
2023-01-08T04:48:29.716Z,11.09
2023-01-08T04:50:59.093Z,11.20
2023-01-08T04:53:26.126Z,11.15
2023-01-08T04:55:52.791Z,11.08
2023-01-08T04:58:19.440Z,11.18
2023-01-08T05:00:46.104Z,11.13
2023-01-08T05:03:12.984Z,11.12
2023-01-08T05:05:39.512Z,11.14
2023-01-08T05:08:06.191Z,11.28
2023-01-08T05:10:32.739Z,11.10
2023-01-08T05:13:00.210Z,11.08
2023-01-08T05:15:27.322Z,11.09
2023-01-08T05:18:01.764Z,11.00
2023-01-08T05:20:29.290Z,11.10
2023-01-08T05:22:56.366Z,11.11
2023-01-08T05:25:22.934Z,11.22
2023-01-08T05:27:49.557Z,11.21
2023-01-08T05:30:16.985Z,11.13
2023-01-08T05:32:43.681Z,11.22
2023-01-08T05:35:10.692Z,11.22
2023-01-08T05:37:37.916Z,11.12
2023-01-08T05:40:05.433Z,11.24
2023-01-08T05:42:34.876Z,11.06
2023-01-08T05:45:05.483Z,11.20
2023-01-08T05:47:33.009Z,11.16
2023-01-08T05:49:59.773Z,10.83
2023-01-08T05:52:26.861Z,11.12
2023-01-08T05:54:53.421Z,11.17
2023-01-08T05:57:19.974Z,11.20
2023-01-08T05:59:46.578Z,11.30
2023-01-08T06:02:13.135Z,11.22
2023-01-08T06:04:39.811Z,11.19
2023-01-08T06:07:06.429Z,11.14
2023-01-08T06:09:32.939Z,11.20
2023-01-08T06:11:59.463Z,11.22
2023-01-08T06:14:26.044Z,11.33
2023-01-08T06:16:52.609Z,11.19
2023-01-08T06:19:19.276Z,11.23
2023-01-08T06:21:45.932Z,11.22
2023-01-08T06:24:12.580Z,11.19
2023-01-08T06:26:39.136Z,11.14
2023-01-08T06:29:05.914Z,11.25
2023-01-08T06:31:32.546Z,11.24
2023-01-08T06:33:59.164Z,11.07
2023-01-08T06:36:25.909Z,11.00
2023-01-08T06:38:52.456Z,11.20
2023-01-08T06:41:19.141Z,11.05
2023-01-08T06:43:45.688Z,11.07
2023-01-08T06:46:12.393Z,11.21
2023-01-08T06:48:39.000Z,11.34
2023-01-08T06:51:06.034Z,11.18
2023-01-08T06:53:32.605Z,11.14
2023-01-08T06:55:59.320Z,11.22
2023-01-08T06:58:27.658Z,11.31
2023-01-08T07:00:54.284Z,11.11
2023-01-08T07:03:20.954Z,11.14
2023-01-08T07:05:47.622Z,11.13
2023-01-08T07:08:15.440Z,11.10
2023-01-08T07:10:44.305Z,11.17
2023-01-08T07:13:12.678Z,10.87
2023-01-08T07:15:41.248Z,11.08
2023-01-08T07:18:09.826Z,11.21
2023-01-08T07:20:37.229Z,11.17
2023-01-08T07:23:09.338Z,11.04
2023-01-08T07:25:35.982Z,11.06
2023-01-08T07:28:02.594Z,10.86
2023-01-08T07:30:30.771Z,10.91
2023-01-08T07:33:00.082Z,10.98
2023-01-08T07:35:27.167Z,10.98
2023-01-08T07:37:53.804Z,10.96
2023-01-08T07:40:20.369Z,10.88
2023-01-08T07:42:46.961Z,10.93
2023-01-08T07:45:13.870Z,10.89
2023-01-08T07:47:42.605Z,10.92
2023-01-08T07:50:09.795Z,10.82
2023-01-08T07:52:37.865Z,10.97
2023-01-08T07:55:04.904Z,10.70
2023-01-08T07:57:34.538Z,10.94
2023-01-08T08:00:01.082Z,10.93
2023-01-08T08:02:27.877Z,10.79
2023-01-08T08:04:54.587Z,10.92
2023-01-08T08:07:21.246Z,10.88
2023-01-08T08:09:47.762Z,10.96
2023-01-08T08:12:15.229Z,10.94
2023-01-08T08:14:41.820Z,11.02
2023-01-08T08:17:08.374Z,10.88
2023-01-08T08:19:34.935Z,10.99
2023-01-08T08:22:01.751Z,11.09
2023-01-08T08:24:28.350Z,10.98
2023-01-08T08:26:54.870Z,10.93
2023-01-08T08:29:21.433Z,10.97
2023-01-08T08:31:48.092Z,10.80
2023-01-08T08:34:14.660Z,10.98
2023-01-08T08:36:41.240Z,10.94
2023-01-08T08:39:07.948Z,10.86
2023-01-08T08:41:34.529Z,10.78
2023-01-08T08:44:01.211Z,10.11
2023-01-08T08:46:29.658Z,10.05
2023-01-08T08:48:56.212Z,9.89
2023-01-08T08:51:22.958Z,9.76
2023-01-08T08:53:49.593Z,10.01
2023-01-08T08:56:16.245Z,10.08
2023-01-08T08:58:42.890Z,10.09
2023-01-08T09:01:09.583Z,10.12
2023-01-08T09:03:36.569Z,10.14
2023-01-08T09:06:03.506Z,10.25
2023-01-08T09:08:30.029Z,10.28
2023-01-08T09:10:56.642Z,10.38
2023-01-08T09:13:23.212Z,10.50
2023-01-08T09:15:49.836Z,10.57
2023-01-08T09:18:16.385Z,10.62
2023-01-08T09:20:42.940Z,10.64
2023-01-08T09:23:09.773Z,10.53
2023-01-08T09:25:36.457Z,10.49
2023-01-08T09:28:06.218Z,10.56
2023-01-08T09:30:33.512Z,10.31
2023-01-08T09:33:02.921Z,10.46
2023-01-08T09:35:29.978Z,10.14
2023-01-08T09:37:57.895Z,10.45
2023-01-08T09:40:30.905Z,10.50
2023-01-08T09:43:00.587Z,10.44
2023-01-08T09:45:31.127Z,10.21
2023-01-08T09:48:06.224Z,10.16
2023-01-08T09:50:34.204Z,10.30
2023-01-08T09:53:01.075Z,10.28
2023-01-08T09:55:31.365Z,10.23
2023-01-08T09:58:01.684Z,10.20
2023-01-08T10:00:31.718Z,10.23
2023-01-08T10:02:58.507Z,10.32
2023-01-08T10:05:29.828Z,10.45
2023-01-08T10:07:56.491Z,10.62
2023-01-08T10:10:29.360Z,10.65
2023-01-08T10:12:56.448Z,10.37
2023-01-08T10:15:23.687Z,10.52
2023-01-08T10:17:58.593Z,10.15
2023-01-08T10:20:25.904Z,10.30
2023-01-08T10:22:54.350Z,10.40
2023-01-08T10:25:24.817Z,10.44
2023-01-08T10:27:52.978Z,10.39
2023-01-08T10:30:28.620Z,10.32
2023-01-08T10:32:57.658Z,10.45
2023-01-08T10:35:33.484Z,10.53
2023-01-08T10:38:00.366Z,10.66
2023-01-08T10:40:44.234Z,10.70
2023-01-08T10:43:25.600Z,10.74
2023-01-08T10:46:29.101Z,10.70
2023-01-08T10:48:58.733Z,10.60
2023-01-08T10:51:26.689Z,10.86
2023-01-08T10:53:56.222Z,10.76
2023-01-08T10:56:32.186Z,10.97
2023-01-08T10:58:58.903Z,11.04
2023-01-08T11:02:11.388Z,10.99
2023-01-08T11:11:43.141Z,11.03
2023-01-08T11:15:00.148Z,11.17
2023-01-08T11:20:41.871Z,11.16
2023-01-08T11:24:07.439Z,11.20
2023-01-08T11:27:13.337Z,11.52
2023-01-08T11:30:23.991Z,11.60
2023-01-08T11:33:41.182Z,11.73
2023-01-08T11:36:55.020Z,11.89
2023-01-08T11:43:16.684Z,11.57
2023-01-08T11:50:20.585Z,12.23
2023-01-08T11:53:37.435Z,12.15
2023-01-08T11:56:59.495Z,12.09
2023-01-08T11:59:28.876Z,12.24
2023-01-08T12:02:08.225Z,12.31
2023-01-08T12:05:17.689Z,12.01
2023-01-08T12:08:07.873Z,12.45
2023-01-08T12:10:53.377Z,12.75
2023-01-08T12:13:53.560Z,12.83
2023-01-08T12:16:49.331Z,12.68
2023-01-08T12:19:22.822Z,12.76
2023-01-08T12:25:55.489Z,12.43
2023-01-08T12:29:19.455Z,12.59
2023-01-08T12:32:24.537Z,12.62
2023-01-08T12:35:02.506Z,12.68
2023-01-08T12:38:15.768Z,12.79
2023-01-08T12:40:54.513Z,13.09
2023-01-08T12:43:55.189Z,12.75
2023-01-08T12:46:36.424Z,12.86
2023-01-08T12:49:10.770Z,13.09
2023-01-08T12:52:13.060Z,12.81
2023-01-08T12:55:36.379Z,12.82
2023-01-08T13:04:27.963Z,12.45
2023-01-08T13:07:38.151Z,12.72
2023-01-08T13:11:10.911Z,12.20
2023-01-08T13:14:19.295Z,12.32
2023-01-08T13:17:17.054Z,12.14
2023-01-08T13:20:08.938Z,12.55
2023-01-08T13:26:19.812Z,12.30
2023-01-08T13:29:50.695Z,12.28
2023-01-08T13:33:21.172Z,12.31
2023-01-08T13:36:36.250Z,12.55
2023-01-08T13:39:22.754Z,12.42
2023-01-08T13:42:31.959Z,11.95
2023-01-08T13:45:21.433Z,12.15
2023-01-08T13:47:58.591Z,11.78
2023-01-08T13:51:49.672Z,11.99
2023-01-08T13:54:57.344Z,12.11
2023-01-08T13:57:24.437Z,12.07
2023-01-08T13:59:57.841Z,12.11
2023-01-08T14:02:45.017Z,12.23
2023-01-08T14:08:58.757Z,12.17
2023-01-08T14:11:31.788Z,12.17
2023-01-08T14:13:59.066Z,12.12
2023-01-08T14:16:25.964Z,12.13
2023-01-08T14:19:00.024Z,11.89
2023-01-08T14:21:27.115Z,11.61
2023-01-08T14:23:54.160Z,10.52
2023-01-08T14:26:36.000Z,9.80
2023-01-08T14:29:12.179Z,9.84
2023-01-08T14:31:49.057Z,9.55
2023-01-08T14:34:16.833Z,9.62
2023-01-08T14:36:44.211Z,9.69
2023-01-08T14:39:32.219Z,9.62
2023-01-08T14:42:26.645Z,9.27
2023-01-08T14:45:05.384Z,9.40
2023-01-08T14:47:39.991Z,9.74
2023-01-08T14:50:07.635Z,9.76
2023-01-08T14:52:39.278Z,9.86
2023-01-08T14:55:06.383Z,9.92
2023-01-08T14:57:33.091Z,9.91
2023-01-08T15:00:01.672Z,9.88
2023-01-08T15:02:38.059Z,9.79
2023-01-08T15:05:16.664Z,9.99
2023-01-08T15:07:54.982Z,10.00
2023-01-08T15:10:42.816Z,10.00
2023-01-08T15:13:38.006Z,9.97
2023-01-08T15:16:16.786Z,9.87
2023-01-08T15:18:48.960Z,9.92
2023-01-08T15:21:21.173Z,10.06
2023-01-08T15:23:55.195Z,10.08
2023-01-08T15:26:23.078Z,10.14
2023-01-08T15:28:52.188Z,10.13
2023-01-08T15:31:41.044Z,10.23
2023-01-08T15:34:08.539Z,10.13
2023-01-08T15:36:35.077Z,9.96
2023-01-08T15:39:01.751Z,9.56
2023-01-08T15:41:57.587Z,9.83
2023-01-08T15:44:25.333Z,9.94
2023-01-08T15:46:52.543Z,9.85
2023-01-08T15:49:19.385Z,9.68
2023-01-08T15:51:51.859Z,9.63
2023-01-08T15:54:20.588Z,9.69
2023-01-08T15:56:47.240Z,9.69
2023-01-08T15:59:13.840Z,9.75
2023-01-08T16:01:40.532Z,9.47
2023-01-08T16:04:07.512Z,9.42
2023-01-08T16:06:36.093Z,9.43
2023-01-08T16:09:02.712Z,9.42
2023-01-08T16:11:29.626Z,9.38
2023-01-08T16:13:56.197Z,9.26
2023-01-08T16:16:22.759Z,9.26
2023-01-08T16:18:49.497Z,9.23
2023-01-08T16:21:16.120Z,9.26
2023-01-08T16:23:42.705Z,9.22
2023-01-08T16:26:11.768Z,9.18
2023-01-08T16:28:39.220Z,9.06
2023-01-08T16:31:06.190Z,9.03
2023-01-08T16:33:32.972Z,9.13
2023-01-08T16:36:07.526Z,9.12
2023-01-08T16:38:35.524Z,8.97
2023-01-08T16:41:02.580Z,9.01
2023-01-08T16:43:30.659Z,8.89
2023-01-08T16:46:02.992Z,9.01
2023-01-08T16:48:30.243Z,9.06
2023-01-08T16:51:05.203Z,9.17
2023-01-08T16:53:32.388Z,9.23
2023-01-08T16:56:00.189Z,9.19
2023-01-08T16:58:27.487Z,9.22
2023-01-08T17:00:54.236Z,9.25
2023-01-08T17:03:24.539Z,9.28
2023-01-08T17:05:51.244Z,9.21
2023-01-08T17:08:19.903Z,9.14
2023-01-08T17:10:47.008Z,9.14
2023-01-08T17:13:13.560Z,9.19
2023-01-08T17:15:40.475Z,9.21
2023-01-08T17:18:08.744Z,9.30
2023-01-08T17:20:37.019Z,9.35
2023-01-08T17:23:03.687Z,9.30
2023-01-08T17:25:30.257Z,9.24
2023-01-08T17:27:56.929Z,9.22
2023-01-08T17:30:23.502Z,9.35
2023-01-08T17:32:50.059Z,9.28
2023-01-08T17:35:16.714Z,9.21
2023-01-08T17:37:43.276Z,9.15
2023-01-08T17:40:13.786Z,9.13
2023-01-08T17:42:40.455Z,8.99
2023-01-08T17:45:07.667Z,8.83
2023-01-08T17:47:35.279Z,8.90
2023-01-08T17:50:03.311Z,8.86
2023-01-08T17:52:29.891Z,8.93
2023-01-08T17:54:56.539Z,8.97
2023-01-08T17:57:23.633Z,8.94
2023-01-08T17:59:50.371Z,9.01
2023-01-08T18:02:17.600Z,8.98
2023-01-08T18:04:45.579Z,8.93
2023-01-08T18:07:13.397Z,8.96
2023-01-08T18:09:40.349Z,9.01
2023-01-08T18:12:07.786Z,8.99
2023-01-08T18:14:38.997Z,8.70
2023-01-08T18:17:06.150Z,8.87
2023-01-08T18:19:33.044Z,8.71
2023-01-08T18:22:01.008Z,8.70
2023-01-08T18:24:27.803Z,8.77
2023-01-08T18:26:54.472Z,8.83
2023-01-08T18:29:21.140Z,8.68
2023-01-08T18:31:47.971Z,8.48
2023-01-08T18:34:15.200Z,8.61
2023-01-08T18:36:42.395Z,8.62
2023-01-08T18:39:09.329Z,8.43
2023-01-08T18:41:54.502Z,8.53
2023-01-08T18:44:21.505Z,8.55
2023-01-08T18:46:48.410Z,8.54
2023-01-08T18:49:15.563Z,8.41
2023-01-08T18:51:42.812Z,8.54
2023-01-08T18:54:11.240Z,8.48
2023-01-08T18:56:38.033Z,8.33
2023-01-08T18:59:06.280Z,8.44
2023-01-08T19:01:34.864Z,8.34
2023-01-08T19:04:01.525Z,8.47
2023-01-08T19:06:28.207Z,8.51
2023-01-08T19:08:57.627Z,8.47
2023-01-08T19:11:24.464Z,8.45
2023-01-08T19:13:55.496Z,8.43
2023-01-08T19:16:22.678Z,8.47
2023-01-08T19:18:50.131Z,8.42
2023-01-08T19:21:19.033Z,8.32
2023-01-08T19:23:46.970Z,8.37
2023-01-08T19:26:14.562Z,8.38
2023-01-08T19:28:42.276Z,8.31
2023-01-08T19:31:12.280Z,8.33
2023-01-08T19:33:39.232Z,8.32
2023-01-08T19:36:11.043Z,8.29
2023-01-08T19:38:37.616Z,8.06
2023-01-08T19:41:04.589Z,8.14
2023-01-08T19:43:43.282Z,8.02
2023-01-08T19:46:15.367Z,8.02
2023-01-08T19:48:43.947Z,8.06
2023-01-08T19:51:11.867Z,8.04
2023-01-08T19:53:38.510Z,7.92
2023-01-08T19:56:07.639Z,7.94
2023-01-08T19:58:34.573Z,7.93
2023-01-08T20:01:05.648Z,7.97
2023-01-08T20:03:32.297Z,7.93
2023-01-08T20:05:58.841Z,7.96
2023-01-08T20:08:25.420Z,7.95
2023-01-08T20:10:51.972Z,7.91
2023-01-08T20:13:19.372Z,7.91
2023-01-08T20:15:55.272Z,7.91
2023-01-08T20:18:21.901Z,7.75
2023-01-08T20:20:48.479Z,7.84
2023-01-08T20:23:15.038Z,7.77
2023-01-08T20:25:42.067Z,7.79
2023-01-08T20:28:08.660Z,7.77
2023-01-08T20:30:37.604Z,7.70
2023-01-08T20:33:04.154Z,7.68
2023-01-08T20:35:30.656Z,7.69
2023-01-08T20:37:57.211Z,7.48
2023-01-08T20:40:23.816Z,7.55
2023-01-08T20:42:50.457Z,7.64
2023-01-08T20:45:18.210Z,7.59
2023-01-08T20:47:44.957Z,7.61
2023-01-08T20:50:19.707Z,7.55
2023-01-08T20:52:47.567Z,7.52
2023-01-08T20:55:14.328Z,7.52
2023-01-08T20:57:40.999Z,7.47
2023-01-08T21:00:08.582Z,7.40
2023-01-08T21:02:35.213Z,7.55
2023-01-08T21:05:01.933Z,7.51
2023-01-08T21:07:29.848Z,7.59
2023-01-08T21:09:56.357Z,7.54
2023-01-08T21:12:22.933Z,7.50
2023-01-08T21:14:49.757Z,7.55
2023-01-08T21:17:16.384Z,7.62
2023-01-08T21:19:43.077Z,7.33
2023-01-08T21:22:12.037Z,7.52
2023-01-08T21:24:38.802Z,7.62
2023-01-08T21:27:05.348Z,7.53
2023-01-08T21:29:32.055Z,7.35
2023-01-08T21:31:58.669Z,7.44
2023-01-08T21:34:25.999Z,7.58
2023-01-08T21:36:52.559Z,7.64
2023-01-08T21:39:19.199Z,7.67
2023-01-08T21:42:04.504Z,7.69
2023-01-08T21:44:49.592Z,7.53
2023-01-08T21:47:18.049Z,7.61
2023-01-08T21:49:46.060Z,7.64
2023-01-08T21:52:31.418Z,7.59
2023-01-08T21:54:58.223Z,7.87
2023-01-08T21:57:27.742Z,7.96
2023-01-08T21:59:55.127Z,7.76
2023-01-08T22:02:24.228Z,7.91
2023-01-08T22:04:54.460Z,7.95
2023-01-08T22:07:20.991Z,7.87
2023-01-08T22:09:47.679Z,7.94
2023-01-08T22:12:15.743Z,8.03
2023-01-08T22:14:42.768Z,7.93
2023-01-08T22:17:09.442Z,8.00
2023-01-08T22:19:39.697Z,8.07
2023-01-08T22:22:10.161Z,8.16
2023-01-08T22:24:37.633Z,8.07
2023-01-08T22:27:04.227Z,8.14
2023-01-08T22:29:30.864Z,8.06
2023-01-08T22:31:57.687Z,8.03
2023-01-08T22:34:24.570Z,8.12
2023-01-08T22:36:52.535Z,8.14
2023-01-08T22:39:19.596Z,8.16
2023-01-08T22:41:46.232Z,8.14
2023-01-08T22:44:13.826Z,8.07
2023-01-08T22:46:40.959Z,8.13
2023-01-08T22:49:09.684Z,8.08
2023-01-08T22:51:36.331Z,8.25
2023-01-08T22:54:03.028Z,8.26
2023-01-08T22:56:29.634Z,8.22
2023-01-08T22:58:58.155Z,8.38
2023-01-08T23:01:27.476Z,8.39
2023-01-08T23:03:57.744Z,8.38
2023-01-08T23:06:26.970Z,8.36
2023-01-08T23:08:54.550Z,8.32
2023-01-08T23:11:22.171Z,8.40
2023-01-08T23:13:51.032Z,8.35
2023-01-08T23:16:18.984Z,8.54
2023-01-08T23:18:45.822Z,8.42
2023-01-08T23:21:16.818Z,8.39
2023-01-08T23:23:43.967Z,8.43
2023-01-08T23:26:14.093Z,8.44
2023-01-08T23:28:40.625Z,8.43
2023-01-08T23:31:12.072Z,8.48
2023-01-08T23:33:38.834Z,8.53
2023-01-08T23:36:05.954Z,8.64
2023-01-08T23:38:32.856Z,8.49
2023-01-08T23:40:59.913Z,8.51
2023-01-08T23:43:26.648Z,8.62
2023-01-08T23:45:53.960Z,8.72
2023-01-08T23:48:20.620Z,8.68
2023-01-08T23:50:47.175Z,8.65
2023-01-08T23:53:13.771Z,8.73
2023-01-08T23:55:41.270Z,8.65
2023-01-08T23:58:07.850Z,8.66
